Time;durP1;ratioP1;P1;durP2;ratioP2;P2;SDS_P1;SDS_P2;PMS_P1;PMS_P2;Temp;Humidity;BMP_temperature;BMP_pressure;BME280_temperature;BME280_humidity;BME280_pressure;Samples;Min_cycle;Max_cycle;Signal;HPM_P1;HPM_P2
2022/03/03 00:01:19;;;;;;;77.38;43.15;;;2.50;99.90;;;;;;5048806;28;20132;-38
2022/03/03 00:03:46;;;;;;;78.28;42.42;;;2.40;99.90;;;;;;5047731;28;20045;-38
2022/03/03 00:06:14;;;;;;;82.97;43.97;;;2.40;99.90;;;;;;5046699;28;20151;-38
2022/03/03 00:08:41;;;;;;;84.28;45.42;;;2.40;99.90;;;;;;5050502;28;20127;-37
2022/03/03 00:11:07;;;;;;;85.32;46.53;;;2.40;99.90;;;;;;5050595;28;20140;-37
2022/03/03 00:13:34;;;;;;;82.93;44.42;;;2.40;99.90;;;;;;5051223;28;20060;-37
2022/03/03 00:16:03;;;;;;;76.38;42.58;;;2.40;99.90;;;;;;5053318;28;20396;-37
2022/03/03 00:18:29;;;;;;;81.32;45.63;;;2.30;99.90;;;;;;5054667;28;20080;-37
2022/03/03 00:20:56;;;;;;;78.47;44.20;;;2.30;99.90;;;;;;5055597;28;20047;-38
2022/03/03 00:23:24;;;;;;;79.00;42.75;;;2.30;99.90;;;;;;5046928;28;20047;-38
2022/03/03 00:25:51;;;;;;;81.93;44.25;;;2.20;99.90;;;;;;5046070;28;20049;-37
2022/03/03 00:28:17;;;;;;;78.32;43.25;;;2.20;99.90;;;;;;5053868;28;20063;-37
2022/03/03 00:30:44;;;;;;;79.75;43.72;;;2.20;99.90;;;;;;5053756;28;20092;-37
2022/03/03 00:33:11;;;;;;;84.03;44.25;;;2.20;99.90;;;;;;5042482;28;20049;-37
2022/03/03 00:35:37;;;;;;;82.53;43.28;;;2.20;99.90;;;;;;5053891;28;20405;-36
2022/03/03 00:38:04;;;;;;;87.38;45.42;;;2.10;99.90;;;;;;5049235;28;20060;-37
2022/03/03 00:40:32;;;;;;;80.03;44.00;;;2.10;99.90;;;;;;5048842;28;20063;-37
2022/03/03 00:42:59;;;;;;;81.82;44.42;;;2.10;99.90;;;;;;5050947;28;20382;-37
2022/03/03 00:45:26;;;;;;;76.88;42.70;;;2.10;99.90;;;;;;5045084;28;20504;-37
2022/03/03 00:47:52;;;;;;;74.05;40.75;;;2.00;99.90;;;;;;5053291;28;20053;-36
2022/03/03 00:50:19;;;;;;;83.10;43.40;;;2.10;99.90;;;;;;5054325;28;20457;-37
2022/03/03 00:52:46;;;;;;;80.20;42.67;;;2.10;99.90;;;;;;5054185;28;20067;-37
2022/03/03 00:55:13;;;;;;;83.13;44.50;;;2.00;99.90;;;;;;5048179;28;20481;-37
2022/03/03 00:57:41;;;;;;;75.38;41.63;;;2.00;99.90;;;;;;5050922;28;20059;-37
2022/03/03 01:00:09;;;;;;;74.32;41.45;;;2.00;99.90;;;;;;5052447;28;20040;-36
2022/03/03 01:02:36;;;;;;;66.07;37.25;;;2.00;99.90;;;;;;5051371;28;20053;-37
2022/03/03 01:05:03;;;;;;;74.68;42.85;;;2.00;99.90;;;;;;5052630;28;20045;-37
2022/03/03 01:07:29;;;;;;;70.32;38.78;;;1.90;99.90;;;;;;5054629;28;20408;-37
2022/03/03 01:09:56;;;;;;;69.03;38.38;;;1.90;99.90;;;;;;5052941;28;20052;-37
2022/03/03 01:12:23;;;;;;;71.72;39.03;;;1.80;99.90;;;;;;5053373;28;20373;-37
2022/03/03 01:14:51;;;;;;;75.57;41.97;;;1.80;99.90;;;;;;5051744;28;20042;-38
2022/03/03 01:17:18;;;;;;;71.72;39.67;;;1.80;99.90;;;;;;5054299;28;20503;-38
2022/03/03 01:19:44;;;;;;;64.70;36.22;;;1.70;99.90;;;;;;5044569;28;20067;-38
2022/03/03 01:22:11;;;;;;;76.10;40.97;;;1.70;99.90;;;;;;5053315;28;20540;-38
2022/03/03 01:24:38;;;;;;;67.20;37.00;;;1.70;99.90;;;;;;5053268;28;20057;-38
2022/03/03 01:27:05;;;;;;;66.93;37.25;;;1.70;99.90;;;;;;5040037;28;20049;-37
2022/03/03 01:29:31;;;;;;;61.10;35.05;;;1.60;99.90;;;;;;5052853;28;20045;-36
2022/03/03 01:31:59;;;;;;;76.20;41.17;;;1.60;99.90;;;;;;5043152;28;20059;-37
2022/03/03 01:34:26;;;;;;;71.65;40.95;;;1.60;99.90;;;;;;5052459;28;20045;-37
2022/03/03 01:36:53;;;;;;;70.45;37.33;;;1.50;99.90;;;;;;5053060;28;20045;-36
2022/03/03 01:39:19;;;;;;;71.93;38.55;;;1.50;99.90;;;;;;5053084;28;20056;-36
2022/03/03 01:41:46;;;;;;;65.10;35.97;;;1.40;99.90;;;;;;5051802;28;20507;-37
2022/03/03 01:44:13;;;;;;;62.83;33.90;;;1.40;99.90;;;;;;5052909;28;20045;-37
2022/03/03 01:46:48;;;;;;;79.15;42.70;;;1.40;99.90;;;;;;5053289;28;20493;-37
2022/03/03 01:49:16;;;;;;;84.38;44.33;;;1.40;99.90;;;;;;5066383;28;20059;-37
2022/03/03 01:51:43;;;;;;;72.10;38.85;;;1.30;99.90;;;;;;5054210;28;20053;-38
2022/03/03 01:54:10;;;;;;;72.05;40.05;;;1.30;99.90;;;;;;5047876;28;20059;-36
2022/03/03 01:56:36;;;;;;;78.45;41.88;;;1.20;99.90;;;;;;5039532;28;20540;-37
2022/03/03 01:59:03;;;;;;;73.10;39.55;;;1.20;99.90;;;;;;5042160;28;20132;-38
2022/03/03 02:01:31;;;;;;;82.22;42.65;;;1.20;99.90;;;;;;5048178;28;20156;-37
2022/03/03 02:03:58;;;;;;;81.78;43.47;;;1.10;99.90;;;;;;5058690;28;20524;-36
2022/03/03 02:06:26;;;;;;;69.18;38.47;;;1.10;99.90;;;;;;5042652;28;20057;-36
2022/03/03 02:08:53;;;;;;;68.32;36.83;;;1.10;99.90;;;;;;5046293;28;20049;-38
2022/03/03 02:11:20;;;;;;;78.07;43.90;;;1.00;99.90;;;;;;5052720;28;20492;-36
2022/03/03 02:13:46;;;;;;;83.63;43.90;;;1.00;99.90;;;;;;5052738;28;20132;-37
2022/03/03 02:16:13;;;;;;;68.60;38.08;;;1.00;99.90;;;;;;5051432;28;20037;-37
2022/03/03 02:18:40;;;;;;;74.35;38.97;;;1.00;99.90;;;;;;5052497;28;20467;-38
2022/03/03 02:21:10;;;;;;;85.20;44.28;;;1.00;99.90;;;;;;5043437;28;20099;-37
2022/03/03 02:23:37;;;;;;;69.97;39.60;;;1.00;99.90;;;;;;5046194;28;20564;-37
2022/03/03 02:26:03;;;;;;;71.13;39.40;;;1.00;99.90;;;;;;5035994;28;20072;-37
2022/03/03 02:28:30;;;;;;;67.03;37.65;;;1.00;99.90;;;;;;5052691;28;20049;-37
2022/03/03 02:30:57;;;;;;;71.93;38.67;;;0.90;99.90;;;;;;5048835;28;20059;-38
2022/03/03 02:33:23;;;;;;;74.82;40.17;;;1.00;99.90;;;;;;5052166;28;20211;-38
2022/03/03 02:35:50;;;;;;;75.30;39.97;;;0.90;99.90;;;;;;5050049;28;20470;-36
2022/03/03 02:38:18;;;;;;;74.18;40.88;;;0.90;99.90;;;;;;5036512;28;20058;-37
2022/03/03 02:40:45;;;;;;;67.70;36.33;;;0.90;99.90;;;;;;5042956;28;20060;-37
2022/03/03 02:43:12;;;;;;;81.72;43.30;;;0.80;99.90;;;;;;5052858;28;20057;-36
2022/03/03 02:45:38;;;;;;;83.53;44.28;;;0.80;99.90;;;;;;5052105;28;20047;-36
2022/03/03 02:48:05;;;;;;;71.03;39.45;;;0.80;99.90;;;;;;5051417;28;20139;-36
2022/03/03 02:50:32;;;;;;;62.00;35.35;;;0.80;99.90;;;;;;5048817;28;20057;-37
2022/03/03 02:53:02;;;;;;;65.55;37.10;;;0.80;99.90;;;;;;5051396;28;20504;-36
2022/03/03 02:55:30;;;;;;;75.03;39.83;;;0.70;99.90;;;;;;5048203;28;20076;-36
2022/03/03 02:57:57;;;;;;;68.45;38.40;;;0.70;99.90;;;;;;5051322;28;20049;-36
2022/03/03 03:00:25;;;;;;;66.30;36.72;;;0.70;99.90;;;;;;5050867;28;20056;-37
2022/03/03 03:02:52;;;;;;;67.10;36.13;;;0.60;99.90;;;;;;5047306;28;20139;-38
2022/03/03 03:05:19;;;;;;;68.50;37.00;;;0.60;99.90;;;;;;5047610;28;20045;-37
2022/03/03 03:07:46;;;;;;;78.10;41.65;;;0.60;99.90;;;;;;5050978;28;20056;-35
2022/03/03 03:10:13;;;;;;;67.50;38.33;;;0.60;99.90;;;;;;5045183;28;20073;-36
2022/03/03 03:12:41;;;;;;;72.40;39.47;;;0.70;99.90;;;;;;5042990;28;20054;-37
2022/03/03 03:15:08;;;;;;;73.43;41.90;;;0.60;99.90;;;;;;5041961;28;20052;-37
2022/03/03 03:17:34;;;;;;;70.70;37.90;;;0.60;99.90;;;;;;5050841;28;20053;-37
2022/03/03 03:20:01;;;;;;;77.13;41.75;;;0.50;99.90;;;;;;5031694;28;20396;-38
2022/03/03 03:22:28;;;;;;;75.85;40.92;;;0.50;99.90;;;;;;5050330;28;20148;-37
2022/03/03 03:24:55;;;;;;;79.13;41.05;;;0.50;99.90;;;;;;5049513;28;20045;-36
2022/03/03 03:27:21;;;;;;;81.43;41.33;;;0.50;99.90;;;;;;5052558;28;20051;-37
2022/03/03 03:29:49;;;;;;;78.47;40.83;;;0.50;99.90;;;;;;5035260;28;20151;-36
2022/03/03 03:32:16;;;;;;;77.93;41.65;;;0.50;99.90;;;;;;5047002;28;20485;-37
2022/03/03 03:34:43;;;;;;;79.85;43.30;;;0.50;99.90;;;;;;5050989;28;20045;-37
2022/03/03 03:37:09;;;;;;;79.15;42.47;;;0.50;99.90;;;;;;5048875;28;20049;-37
2022/03/03 03:39:36;;;;;;;76.43;41.28;;;0.50;99.90;;;;;;5050991;28;20135;-37
2022/03/03 03:42:03;;;;;;;70.88;39.30;;;0.40;99.90;;;;;;5050953;28;20060;-37
2022/03/03 03:44:30;;;;;;;70.57;41.05;;;0.40;99.90;;;;;;5050796;28;20423;-36
2022/03/03 03:46:58;;;;;;;82.30;42.03;;;0.40;99.90;;;;;;5050583;28;20083;-37
2022/03/03 03:49:25;;;;;;;72.55;38.28;;;0.40;99.90;;;;;;5051788;28;20044;-36
2022/03/03 03:51:52;;;;;;;76.13;42.85;;;0.40;99.90;;;;;;5049593;28;20090;-37
2022/03/03 03:54:18;;;;;;;71.38;38.65;;;0.40;99.90;;;;;;5050857;28;20493;-36
2022/03/03 03:56:45;;;;;;;75.60;40.22;;;0.40;99.90;;;;;;5050610;28;20057;-36
2022/03/03 03:59:12;;;;;;;71.45;40.03;;;0.40;99.90;;;;;;5048497;28;20464;-36
2022/03/03 04:01:38;;;;;;;76.25;40.65;;;0.50;99.90;;;;;;5049862;28;20052;-37
2022/03/03 04:04:06;;;;;;;73.32;40.03;;;0.40;99.90;;;;;;5049875;28;20484;-35
2022/03/03 04:06:33;;;;;;;79.05;40.97;;;0.40;99.90;;;;;;5050043;28;20055;-37
2022/03/03 04:09:00;;;;;;;79.28;42.50;;;0.40;99.90;;;;;;5050763;28;20053;-36
2022/03/03 04:11:27;;;;;;;76.75;41.70;;;0.40;99.90;;;;;;5051944;28;20045;-36
2022/03/03 04:13:56;;;;;;;74.15;38.83;;;0.40;99.90;;;;;;5049998;28;20061;-37
2022/03/03 04:16:23;;;;;;;69.95;37.13;;;0.40;99.90;;;;;;5040811;28;20049;-38
2022/03/03 04:18:50;;;;;;;76.10;39.05;;;0.40;99.90;;;;;;5050297;28;20044;-37
2022/03/03 04:21:18;;;;;;;73.97;38.88;;;0.50;99.90;;;;;;5043921;28;20045;-37
2022/03/03 04:23:44;;;;;;;74.65;41.75;;;0.40;99.90;;;;;;5032321;28;20050;-37
2022/03/03 04:26:11;;;;;;;75.03;40.67;;;0.50;99.90;;;;;;5037599;28;20053;-37
2022/03/03 04:28:38;;;;;;;76.97;40.67;;;0.50;99.90;;;;;;5041210;28;20037;-38
2022/03/03 04:31:05;;;;;;;75.47;40.67;;;0.50;99.90;;;;;;5052202;28;20392;-37
2022/03/03 04:33:32;;;;;;;76.47;41.80;;;0.50;99.90;;;;;;5048626;28;20195;-38
2022/03/03 04:35:59;;;;;;;70.25;38.72;;;0.50;99.90;;;;;;5043147;28;20085;-37
2022/03/03 04:38:27;;;;;;;71.20;38.03;;;0.50;99.90;;;;;;5050592;28;20067;-37
2022/03/03 04:40:53;;;;;;;70.53;38.25;;;0.50;99.90;;;;;;5050027;28;20500;-36
2022/03/03 04:43:20;;;;;;;75.28;39.55;;;0.40;99.90;;;;;;5046167;28;20079;-36
2022/03/03 04:45:47;;;;;;;69.15;39.10;;;0.50;99.90;;;;;;5047328;28;20149;-37
2022/03/03 04:48:14;;;;;;;73.18;39.97;;;0.50;99.90;;;;;;5040514;28;20394;-37
2022/03/03 04:50:40;;;;;;;66.68;37.53;;;0.40;99.90;;;;;;5058951;28;20063;-36
2022/03/03 04:53:07;;;;;;;65.63;38.15;;;0.40;99.90;;;;;;5043623;28;20096;-37
2022/03/03 04:55:35;;;;;;;68.45;38.75;;;0.40;99.90;;;;;;5038536;28;20391;-37
2022/03/03 04:58:02;;;;;;;63.65;35.50;;;0.50;99.90;;;;;;5050218;28;20048;-36
2022/03/03 05:00:29;;;;;;;63.42;36.40;;;0.40;99.90;;;;;;5037381;28;20048;-36
2022/03/03 05:02:56;;;;;;;65.45;37.28;;;0.40;99.90;;;;;;5053750;28;20055;-36
2022/03/03 05:05:23;;;;;;;64.90;36.33;;;0.40;99.90;;;;;;5053210;28;20044;-36
2022/03/03 05:07:49;;;;;;;70.20;37.25;;;0.40;99.90;;;;;;5052764;28;20564;-37
2022/03/03 05:10:16;;;;;;;68.57;37.05;;;0.40;99.90;;;;;;5038577;28;20041;-37
2022/03/03 05:12:44;;;;;;;66.20;37.45;;;0.40;99.90;;;;;;5040280;28;20208;-36
2022/03/03 05:15:11;;;;;;;68.65;36.83;;;0.40;99.90;;;;;;5050013;28;20131;-37
2022/03/03 05:17:37;;;;;;;60.83;36.67;;;0.40;99.90;;;;;;5047727;28;20045;-35
2022/03/03 05:20:06;;;;;;;68.22;36.80;;;0.40;99.90;;;;;;5048132;28;20099;-36
2022/03/03 05:22:33;;;;;;;66.93;35.03;;;0.40;99.90;;;;;;5054135;28;20063;-37
2022/03/03 05:25:00;;;;;;;57.80;33.72;;;0.30;99.90;;;;;;5054122;28;20047;-36
2022/03/03 05:27:26;;;;;;;62.70;35.47;;;0.30;99.90;;;;;;5045298;28;20454;-36
2022/03/03 05:29:55;;;;;;;61.38;34.03;;;0.30;99.90;;;;;;5046508;28;20080;-36
2022/03/03 05:32:21;;;;;;;57.80;34.35;;;0.30;99.90;;;;;;5052105;28;20382;-38
2022/03/03 05:34:48;;;;;;;61.38;34.65;;;0.30;99.90;;;;;;5053125;28;20049;-37
2022/03/03 05:37:18;;;;;;;64.07;34.65;;;0.20;99.90;;;;;;5053075;28;20136;-37
2022/03/03 05:39:44;;;;;;;58.63;34.17;;;0.20;99.90;;;;;;5048797;28;20055;-36
2022/03/03 05:42:12;;;;;;;59.55;34.20;;;0.20;99.90;;;;;;5053075;28;20392;-37
2022/03/03 05:44:38;;;;;;;61.33;35.58;;;0.20;99.90;;;;;;5052488;28;20076;-37
2022/03/03 05:47:07;;;;;;;59.83;33.67;;;0.20;99.90;;;;;;5052661;28;20059;-37
2022/03/03 05:49:34;;;;;;;64.32;35.53;;;0.10;99.90;;;;;;5052818;28;20079;-36
2022/03/03 05:52:00;;;;;;;57.78;34.25;;;0.10;99.90;;;;;;5051208;28;20052;-36
2022/03/03 05:54:27;;;;;;;60.85;34.88;;;0.10;99.90;;;;;;5051044;28;20509;-36
2022/03/03 05:56:54;;;;;;;58.53;33.97;;;0.10;99.90;;;;;;5053120;28;20096;-36
2022/03/03 05:59:23;;;;;;;62.15;34.78;;;0.10;99.90;;;;;;5053291;28;20056;-36
2022/03/03 06:01:49;;;;;;;58.88;33.47;;;0.10;99.90;;;;;;5047875;28;20400;-37
2022/03/03 06:04:17;;;;;;;56.92;33.45;;;0.10;99.90;;;;;;5051633;28;20139;-38
2022/03/03 06:06:53;;;;;;;57.45;33.65;;;0.00;99.90;;;;;;5053899;28;20055;-37
2022/03/03 06:09:20;;;;;;;59.45;33.03;;;0.10;99.90;;;;;;5052134;28;20057;-36
2022/03/03 06:11:49;;;;;;;60.22;33.08;;;0.00;99.90;;;;;;5053772;28;20051;-37
2022/03/03 06:14:19;;;;;;;58.80;34.13;;;0.00;99.90;;;;;;5053254;28;20064;-37
2022/03/03 06:16:46;;;;;;;59.58;33.05;;;0.00;99.90;;;;;;5052913;28;20063;-36
2022/03/03 06:19:13;;;;;;;64.45;35.97;;;0.00;99.90;;;;;;5050283;28;20605;-36
2022/03/03 06:21:41;;;;;;;65.43;34.17;;;0.00;99.90;;;;;;5056412;28;20059;-36
2022/03/03 06:24:08;;;;;;;57.65;32.30;;;0.00;99.90;;;;;;5047899;28;20508;-37
2022/03/03 06:26:36;;;;;;;62.03;35.05;;;-0.10;99.90;;;;;;5047858;28;20135;-36
2022/03/03 06:29:03;;;;;;;62.28;36.38;;;-0.10;99.90;;;;;;5052171;28;20052;-36
2022/03/03 06:31:29;;;;;;;57.67;32.13;;;-0.10;99.90;;;;;;5052338;28;20076;-36
2022/03/03 06:33:56;;;;;;;58.50;33.50;;;-0.10;99.90;;;;;;5050648;28;20144;-36
2022/03/03 06:36:23;;;;;;;57.10;32.03;;;-0.10;99.90;;;;;;5045691;28;20051;-37
2022/03/03 06:38:51;;;;;;;54.53;31.52;;;-0.10;99.90;;;;;;5052393;28;20069;-37
2022/03/03 06:41:18;;;;;;;53.65;30.65;;;-0.10;99.90;;;;;;5054263;28;20123;-36
2022/03/03 06:43:44;;;;;;;52.10;31.98;;;-0.10;99.90;;;;;;5052423;28;20045;-36
2022/03/03 06:46:11;;;;;;;54.60;31.20;;;-0.10;99.90;;;;;;5050451;28;20131;-36
2022/03/03 06:48:38;;;;;;;52.95;31.25;;;-0.10;99.90;;;;;;5039449;28;20476;-37
2022/03/03 06:51:05;;;;;;;56.50;31.38;;;-0.10;99.90;;;;;;5047279;28;20059;-37
2022/03/03 06:53:33;;;;;;;49.75;29.58;;;-0.10;99.90;;;;;;5047981;28;20076;-37
2022/03/03 06:56:04;;;;;;;57.50;31.15;;;0.00;99.90;;;;;;5046291;28;20041;-37
2022/03/03 06:58:31;;;;;;;56.57;31.43;;;0.00;99.90;;;;;;5049613;28;20401;-37
2022/03/03 07:00:57;;;;;;;51.17;30.77;;;0.00;99.90;;;;;;5035673;28;20303;-37
2022/03/03 07:03:24;;;;;;;55.40;32.58;;;0.00;99.90;;;;;;5032429;28;20046;-36
2022/03/03 07:05:51;;;;;;;53.75;31.42;;;0.00;99.90;;;;;;5032508;28;20497;-36
2022/03/03 07:08:19;;;;;;;53.97;30.25;;;0.00;99.90;;;;;;5033246;28;20053;-36
2022/03/03 07:10:47;;;;;;;59.22;33.50;;;0.10;99.90;;;;;;5032333;28;20147;-36
2022/03/03 07:13:15;;;;;;;56.63;32.20;;;0.20;99.90;;;;;;5033156;28;20053;-36
2022/03/03 07:15:45;;;;;;;55.47;32.00;;;0.30;99.90;;;;;;5032566;28;20140;-36
2022/03/03 07:18:13;;;;;;;52.13;30.55;;;0.30;99.90;;;;;;5032256;28;20443;-43
2022/03/03 07:20:40;;;;;;;53.85;32.70;;;0.30;99.90;;;;;;5031908;28;20055;-36
2022/03/03 07:23:13;;;;;;;50.67;30.70;;;0.30;99.90;;;;;;5031648;28;20438;-36
2022/03/03 07:25:41;;;;;;;50.40;30.55;;;0.30;99.90;;;;;;5032080;28;20500;-36
2022/03/03 07:28:08;;;;;;;54.45;31.85;;;0.40;99.90;;;;;;5031477;28;20053;-36
2022/03/03 07:30:40;;;;;;;50.80;31.33;;;0.50;99.90;;;;;;5033110;28;20064;-36
2022/03/03 07:33:07;;;;;;;52.47;30.98;;;0.50;99.90;;;;;;5032912;28;20058;-36
2022/03/03 07:35:34;;;;;;;51.35;30.25;;;0.60;99.90;;;;;;5032175;28;20378;-36
2022/03/03 07:38:03;;;;;;;51.47;30.10;;;0.60;99.90;;;;;;5031606;28;20049;-36
2022/03/03 07:40:31;;;;;;;57.58;30.63;;;0.80;99.90;;;;;;5032320;28;20053;-36
2022/03/03 07:42:58;;;;;;;50.22;30.10;;;0.80;99.90;;;;;;5048459;28;20409;-36
2022/03/03 07:45:25;;;;;;;50.17;28.92;;;1.00;99.90;;;;;;5031816;28;20056;-36
2022/03/03 07:47:55;;;;;;;50.35;28.67;;;1.00;99.90;;;;;;5041791;28;20045;-36
2022/03/03 07:50:21;;;;;;;48.90;30.42;;;1.20;99.90;;;;;;5031369;28;20081;-37
2022/03/03 07:52:49;;;;;;;48.60;28.80;;;1.30;99.90;;;;;;5032488;28;20057;-36
2022/03/03 07:55:15;;;;;;;48.22;29.40;;;1.40;99.90;;;;;;5035624;28;20132;-36
2022/03/03 07:57:45;;;;;;;48.38;28.65;;;1.50;99.90;;;;;;5041762;28;20048;-36
2022/03/03 08:00:13;;;;;;;46.97;28.27;;;1.60;99.90;;;;;;5032887;28;20063;-36
2022/03/03 08:02:41;;;;;;;46.08;28.65;;;1.70;99.90;;;;;;5032366;28;20489;-37
2022/03/03 08:05:10;;;;;;;50.53;30.27;;;1.80;99.90;;;;;;5050523;28;20048;-37
2022/03/03 08:07:41;;;;;;;47.13;29.10;;;1.90;99.90;;;;;;5052448;28;20412;-37
2022/03/03 08:10:09;;;;;;;45.85;27.83;;;2.00;99.90;;;;;;5051452;28;20079;-37
2022/03/03 08:12:35;;;;;;;46.13;29.05;;;2.10;99.90;;;;;;5051531;28;20059;-37
2022/03/03 08:15:02;;;;;;;41.67;27.15;;;2.20;99.90;;;;;;5032803;28;20438;-37
2022/03/03 08:17:29;;;;;;;49.45;28.98;;;2.30;99.90;;;;;;5032463;28;20497;-36
2022/03/03 08:19:56;;;;;;;46.28;27.73;;;2.30;99.90;;;;;;5047357;28;20128;-37
2022/03/03 08:22:26;;;;;;;46.53;28.77;;;2.40;99.90;;;;;;5051213;28;20088;-37
2022/03/03 08:24:55;;;;;;;50.10;27.15;;;2.50;99.90;;;;;;5050394;28;20052;-37
2022/03/03 08:27:22;;;;;;;43.00;26.23;;;2.70;99.90;;;;;;5037184;28;20081;-37
2022/03/03 08:29:48;;;;;;;43.97;27.95;;;2.70;99.90;;;;;;5031168;28;20061;-36
2022/03/03 08:32:16;;;;;;;43.83;27.63;;;2.80;99.90;;;;;;5031147;28;20132;-36
2022/03/03 08:34:47;;;;;;;40.85;25.27;;;3.00;99.90;;;;;;5032433;28;20630;-35
2022/03/03 08:37:18;;;;;;;42.55;27.17;;;3.10;99.90;;;;;;5034700;28;20049;-36
2022/03/03 08:39:46;;;;;;;45.65;26.92;;;3.20;99.90;;;;;;5039339;28;20432;-36
2022/03/03 08:42:14;;;;;;;41.72;26.33;;;3.40;99.90;;;;;;5054819;28;20057;-36
2022/03/03 08:44:41;;;;;;;41.78;25.65;;;3.50;99.90;;;;;;5055235;28;20049;-36
2022/03/03 08:47:08;;;;;;;44.70;24.90;;;3.60;99.90;;;;;;5043856;28;20045;-36
2022/03/03 08:49:37;;;;;;;39.40;24.90;;;3.70;99.60;;;;;;5034884;28;20141;-36
2022/03/03 08:52:04;;;;;;;43.58;26.55;;;3.80;99.70;;;;;;5034684;28;20159;-37
2022/03/03 08:54:31;;;;;;;42.00;25.48;;;3.90;99.70;;;;;;5034348;28;20505;-36
2022/03/03 08:56:59;;;;;;;40.97;23.85;;;4.10;99.10;;;;;;5034861;28;20095;-36
2022/03/03 08:59:26;;;;;;;38.53;24.35;;;4.10;98.40;;;;;;5034192;28;20051;-36
2022/03/03 09:01:54;;;;;;;38.67;23.63;;;4.30;98.50;;;;;;5034554;28;20053;-37
2022/03/03 09:04:20;;;;;;;38.45;24.35;;;4.40;98.00;;;;;;5040850;28;20496;-36
2022/03/03 09:06:47;;;;;;;38.72;22.67;;;4.50;96.90;;;;;;5048587;28;20128;-37
2022/03/03 09:09:14;;;;;;;38.58;23.67;;;4.60;96.70;;;;;;5034494;28;20416;-37
2022/03/03 09:11:40;;;;;;;40.10;24.27;;;4.60;95.60;;;;;;5034481;28;20564;-37
2022/03/03 09:14:10;;;;;;;35.05;22.92;;;4.80;95.90;;;;;;5034666;28;20140;-37
2022/03/03 09:16:37;;;;;;;33.22;22.52;;;4.90;95.20;;;;;;5034722;28;20052;-37
2022/03/03 09:19:03;;;;;;;38.90;24.27;;;5.10;94.90;;;;;;5040554;28;20040;-37
2022/03/03 09:21:30;;;;;;;36.90;22.80;;;5.20;93.90;;;;;;5053930;28;20102;-38
2022/03/03 09:23:57;;;;;;;37.17;22.80;;;5.30;94.20;;;;;;5054081;28;20048;-37
2022/03/03 09:26:24;;;;;;;34.08;23.58;;;5.40;93.20;;;;;;5034210;28;20232;-38
2022/03/03 09:28:50;;;;;;;34.28;22.70;;;5.50;92.70;;;;;;5035687;28;20428;-37
2022/03/03 09:31:18;;;;;;;34.95;22.67;;;5.50;92.30;;;;;;5033996;28;20136;-37
2022/03/03 09:33:45;;;;;;;28.92;21.38;;;5.70;92.00;;;;;;5035354;28;20390;-36
2022/03/03 09:36:12;;;;;;;34.47;22.35;;;5.70;91.50;;;;;;5050536;28;20184;-37
2022/03/03 09:38:38;;;;;;;34.88;22.23;;;5.90;91.00;;;;;;5051153;28;20388;-37
2022/03/03 09:41:05;;;;;;;38.67;22.88;;;5.90;90.70;;;;;;5039444;28;20055;-37
2022/03/03 09:43:32;;;;;;;32.25;21.73;;;6.00;89.90;;;;;;5053945;28;20144;-37
2022/03/03 09:45:58;;;;;;;34.83;22.27;;;6.10;89.90;;;;;;5053320;28;20052;-38
2022/03/03 09:48:27;;;;;;;33.72;22.17;;;6.20;89.10;;;;;;5052989;28;20056;-38
2022/03/03 09:50:53;;;;;;;33.53;22.42;;;6.40;89.80;;;;;;5034605;28;20084;-37
2022/03/03 09:53:20;;;;;;;34.85;22.38;;;6.50;88.60;;;;;;5033400;28;20112;-39
2022/03/03 09:55:47;;;;;;;35.63;22.30;;;6.70;88.60;;;;;;5033981;28;20475;-38
2022/03/03 09:58:14;;;;;;;33.60;21.35;;;6.80;87.50;;;;;;5034689;28;20049;-40
2022/03/03 10:00:41;;;;;;;30.10;21.10;;;6.90;86.20;;;;;;5033657;28;20064;-38
2022/03/03 10:03:10;;;;;;;30.20;19.60;;;7.00;84.60;;;;;;5034910;28;20045;-39
2022/03/03 10:05:39;;;;;;;30.42;19.95;;;7.00;83.70;;;;;;5053232;28;20099;-39
2022/03/03 10:08:07;;;;;;;34.45;21.73;;;7.10;82.90;;;;;;5053207;28;20503;-39
2022/03/03 10:10:34;;;;;;;35.13;20.98;;;7.20;83.70;;;;;;5035750;28;20053;-37
2022/03/03 10:13:01;;;;;;;33.35;21.75;;;7.30;83.90;;;;;;5034299;28;20060;-38
2022/03/03 10:15:28;;;;;;;33.10;20.55;;;7.40;83.30;;;;;;5033208;28;20128;-38
2022/03/03 10:17:59;;;;;;;29.33;20.75;;;7.50;80.80;;;;;;5033316;28;20059;-38
2022/03/03 10:20:26;;;;;;;34.00;22.10;;;7.50;80.10;;;;;;5036120;28;20448;-38
2022/03/03 10:22:58;;;;;;;29.90;19.60;;;7.60;81.20;;;;;;5054110;28;20141;-39
2022/03/03 10:25:29;;;;;;;29.35;19.75;;;7.70;79.10;;;;;;5054121;28;20052;-39
2022/03/03 10:27:56;;;;;;;30.13;20.27;;;7.70;77.20;;;;;;5053344;28;20135;-39
2022/03/03 10:30:23;;;;;;;30.45;20.13;;;7.70;78.60;;;;;;5052755;28;20053;-39
2022/03/03 10:32:50;;;;;;;29.17;19.38;;;7.90;78.60;;;;;;5052673;28;20485;-39
2022/03/03 10:35:17;;;;;;;32.75;21.35;;;8.00;78.10;;;;;;5052583;28;20055;-39
2022/03/03 10:37:44;;;;;;;28.38;19.63;;;8.10;77.30;;;;;;5046577;28;20628;-39
2022/03/03 10:40:13;;;;;;;29.27;19.67;;;8.20;76.60;;;;;;5034040;28;20052;-39
2022/03/03 10:42:42;;;;;;;30.92;18.80;;;8.30;76.60;;;;;;5044597;28;20556;-39
2022/03/03 10:45:11;;;;;;;25.75;18.80;;;8.40;75.50;;;;;;5052419;28;20067;-38
2022/03/03 10:47:38;;;;;;;27.88;18.63;;;8.50;75.90;;;;;;5048263;28;20045;-38
2022/03/03 10:50:05;;;;;;;28.48;20.45;;;8.60;74.50;;;;;;5032999;28;20045;-38
2022/03/03 10:52:35;;;;;;;26.67;18.23;;;8.70;74.40;;;;;;5032365;28;20084;-38
2022/03/03 10:55:03;;;;;;;28.67;18.92;;;8.80;72.60;;;;;;5043995;28;20075;-38
2022/03/03 10:57:32;;;;;;;26.08;18.08;;;8.90;73.50;;;;;;5034433;28;20068;-38
2022/03/03 10:59:59;;;;;;;25.35;17.73;;;9.00;72.80;;;;;;5031485;28;20081;-39
2022/03/03 11:02:27;;;;;;;28.25;18.48;;;9.10;71.80;;;;;;5033115;28;20559;-39
2022/03/03 11:04:53;;;;;;;25.40;16.88;;;9.20;70.70;;;;;;5032169;28;20477;-38
2022/03/03 11:07:20;;;;;;;25.45;17.00;;;9.20;69.00;;;;;;5032569;28;20063;-38
2022/03/03 11:09:47;;;;;;;25.52;16.98;;;9.30;68.50;;;;;;5032065;28;20057;-38
2022/03/03 11:12:14;;;;;;;29.85;17.85;;;9.30;68.50;;;;;;5032424;28;20393;-38
2022/03/03 11:14:42;;;;;;;24.20;17.05;;;9.40;67.90;;;;;;5032017;28;20056;-38
2022/03/03 11:17:09;;;;;;;24.63;16.95;;;9.50;66.50;;;;;;5032430;28;20132;-37
2022/03/03 11:19:36;;;;;;;24.45;17.05;;;9.50;66.00;;;;;;5033022;28;20048;-38
2022/03/03 11:22:03;;;;;;;25.40;17.23;;;9.60;66.30;;;;;;5048651;28;20132;-38
2022/03/03 11:24:30;;;;;;;27.27;17.33;;;9.70;66.50;;;;;;5047484;28;20064;-38
2022/03/03 11:26:56;;;;;;;27.80;17.92;;;9.80;66.00;;;;;;5032303;28;20049;-38
2022/03/03 11:29:23;;;;;;;26.63;16.92;;;9.80;66.30;;;;;;5031600;28;20063;-38
2022/03/03 11:32:02;;;;;;;25.70;17.13;;;10.00;66.60;;;;;;5061242;28;20053;-39
2022/03/03 11:34:39;;;;;;;23.98;16.83;;;10.10;64.10;;;;;;5041502;28;20132;-38
2022/03/03 11:37:07;;;;;;;23.77;16.55;;;10.10;66.40;;;;;;5044015;28;20049;-37
2022/03/03 11:39:39;;;;;;;26.35;16.15;;;10.20;66.60;;;;;;5032341;28;20087;-37
2022/03/03 11:42:23;;;;;;;22.50;15.80;;;10.40;66.20;;;;;;5039953;28;20554;-37
2022/03/03 11:44:51;;;;;;;24.17;15.50;;;10.50;62.70;;;;;;5050656;28;20053;-38
2022/03/03 11:47:20;;;;;;;23.75;15.07;;;10.60;64.30;;;;;;5032649;28;20049;-38
2022/03/03 11:50:07;;;;;;;24.63;15.48;;;10.60;64.30;;;;;;5031635;28;20400;-37
2022/03/03 11:52:34;;;;;;;22.17;14.43;;;10.80;63.50;;;;;;5037176;28;20435;-38
2022/03/03 11:55:27;;;;;;;21.52;14.38;;;10.90;64.50;;;;;;5050391;28;20057;-39
2022/03/03 11:57:54;;;;;;;21.48;13.68;;;11.00;62.00;;;;;;5043891;28;20081;-38
2022/03/03 12:00:21;;;;;;;18.08;13.48;;;11.10;63.50;;;;;;5050356;28;20053;-38
2022/03/03 12:02:57;;;;;;;18.98;12.82;;;11.10;63.10;;;;;;5050949;28;20068;-39
2022/03/03 12:05:41;;;;;;;19.83;13.98;;;11.20;61.80;;;;;;5052716;28;20095;-38
2022/03/03 12:08:29;;;;;;;19.83;13.43;;;11.20;60.30;;;;;;5051072;28;20057;-39
2022/03/03 12:11:05;;;;;;;19.60;13.02;;;11.20;60.10;;;;;;5046358;28;20076;-38
2022/03/03 12:13:32;;;;;;;18.65;14.00;;;11.20;61.00;;;;;;5045691;28;20084;-38
2022/03/03 12:16:19;;;;;;;17.52;13.63;;;11.30;61.70;;;;;;5044576;28;20049;-39
2022/03/03 12:18:47;;;;;;;19.92;13.18;;;11.30;58.30;;;;;;5038932;28;20041;-38
2022/03/03 12:21:27;;;;;;;17.73;13.27;;;11.40;61.20;;;;;;5056234;28;20051;-38
2022/03/03 12:24:31;;;;;;;21.05;13.52;;;11.40;60.50;;;;;;5048082;28;20124;-38
2022/03/03 12:27:15;;;;;;;17.88;13.40;;;11.50;61.50;;;;;;5071331;28;20400;-38
2022/03/03 12:29:51;;;;;;;19.63;13.70;;;11.70;60.30;;;;;;5050163;28;20124;-40
2022/03/03 12:32:31;;;;;;;19.63;13.60;;;11.70;60.20;;;;;;5036663;28;20053;-39
2022/03/03 12:35:01;;;;;;;16.25;12.48;;;11.70;57.80;;;;;;5055593;28;20052;-38
2022/03/03 12:37:28;;;;;;;19.80;12.25;;;11.70;58.50;;;;;;5049472;28;20136;-38
2022/03/03 12:39:55;;;;;;;19.77;13.18;;;11.60;58.80;;;;;;5034881;28;20161;-38